12N weather

Aeroflex-Andover Airport
Andover, New Jersey, United States

Public forecast

Using degrees Fahrenheit for public forecast. Weather courtesy of forecast.io.

METAR (pilot weather report)

Retrieved 2019/04/23 15:54 UTC (20 minutes ago):

K12N 231554Z AUTO 00000KT 21/08 A2994 RMK AO1 SLP137 T02110083

TAF (pilot weather forecast)

Closest forecast is Newark Liberty International Airport, 32.1 nm (59.4 km) SE. Retrieved 2019/04/23 12:27 UTC (4 hours ago):

TAF KEWR 231125Z 2312/2418 27005KT P6SM FEW040 SCT250 FM231600 24006KT P6SM FEW050 SCT250 FM231900 17012KT P6SM FEW050 BKN250 FM240200 21013KT P6SM FEW035 BKN050 BKN120 PROB30 2402/2408 5SM -SHRA FM240800 29011KT P6SM SCT050 FM241400 29014G24KT P6SM FEW050